sensor_id;sensor_type;location;lat;lon;timestamp;P1;durP1;ratioP1;P2;durP2;ratioP2
36585;SDS011;22591;48.314;11.562;2023-03-20T00:01:57;44.45;;;41.55;;
36585;SDS011;22591;48.314;11.562;2023-03-20T00:04:23;39.47;;;36.83;;
36585;SDS011;22591;48.314;11.562;2023-03-20T00:06:49;45.90;;;42.90;;
36585;SDS011;22591;48.314;11.562;2023-03-20T00:09:15;36.47;;;33.65;;
36585;SDS011;22591;48.314;11.562;2023-03-20T00:11:44;43.92;;;40.67;;
36585;SDS011;22591;48.314;11.562;2023-03-20T00:14:13;37.80;;;35.20;;
36585;SDS011;22591;48.314;11.562;2023-03-20T00:16:41;40.15;;;37.35;;
36585;SDS011;22591;48.314;11.562;2023-03-20T00:19:21;39.10;;;36.40;;
36585;SDS011;22591;48.314;11.562;2023-03-20T00:21:49;40.30;;;37.50;;
36585;SDS011;22591;48.314;11.562;2023-03-20T00:24:15;44.78;;;41.80;;
36585;SDS011;22591;48.314;11.562;2023-03-20T00:26:41;46.50;;;43.20;;
36585;SDS011;22591;48.314;11.562;2023-03-20T00:29:11;44.00;;;41.00;;
36585;SDS011;22591;48.314;11.562;2023-03-20T00:31:59;36.75;;;34.20;;
36585;SDS011;22591;48.314;11.562;2023-03-20T00:34:26;46.22;;;43.22;;
36585;SDS011;22591;48.314;11.562;2023-03-20T00:36:54;46.90;;;43.63;;
36585;SDS011;22591;48.314;11.562;2023-03-20T00:39:23;42.85;;;39.63;;
36585;SDS011;22591;48.314;11.562;2023-03-20T00:41:55;39.20;;;36.65;;
36585;SDS011;22591;48.314;11.562;2023-03-20T00:49:39;37.47;;;34.92;;
36585;SDS011;22591;48.314;11.562;2023-03-20T00:52:04;38.15;;;35.40;;
36585;SDS011;22591;48.314;11.562;2023-03-20T00:54:30;37.08;;;34.47;;
36585;SDS011;22591;48.314;11.562;2023-03-20T00:56:57;36.30;;;33.75;;
36585;SDS011;22591;48.314;11.562;2023-03-20T00:59:33;39.75;;;36.97;;
36585;SDS011;22591;48.314;11.562;2023-03-20T01:02:01;36.45;;;33.90;;
36585;SDS011;22591;48.314;11.562;2023-03-20T01:04:38;38.28;;;35.47;;
36585;SDS011;22591;48.314;11.562;2023-03-20T01:07:05;40.13;;;37.22;;
36585;SDS011;22591;48.314;11.562;2023-03-20T01:09:34;36.10;;;33.63;;
36585;SDS011;22591;48.314;11.562;2023-03-20T01:12:00;38.72;;;36.20;;
36585;SDS011;22591;48.314;11.562;2023-03-20T01:14:26;32.92;;;30.55;;
36585;SDS011;22591;48.314;11.562;2023-03-20T01:16:52;30.52;;;28.42;;
36585;SDS011;22591;48.314;11.562;2023-03-20T01:19:18;30.35;;;28.23;;
36585;SDS011;22591;48.314;11.562;2023-03-20T01:21:43;35.58;;;32.95;;
36585;SDS011;22591;48.314;11.562;2023-03-20T01:24:09;29.75;;;27.73;;
36585;SDS011;22591;48.314;11.562;2023-03-20T01:26:38;30.92;;;28.63;;
36585;SDS011;22591;48.314;11.562;2023-03-20T01:31:42;30.13;;;28.20;;
36585;SDS011;22591;48.314;11.562;2023-03-20T01:34:10;29.67;;;27.67;;
36585;SDS011;22591;48.314;11.562;2023-03-20T01:36:36;24.83;;;23.13;;
36585;SDS011;22591;48.314;11.562;2023-03-20T01:39:03;26.05;;;24.27;;
36585;SDS011;22591;48.314;11.562;2023-03-20T01:41:29;28.17;;;26.25;;
36585;SDS011;22591;48.314;11.562;2023-03-20T01:43:56;27.25;;;25.48;;
36585;SDS011;22591;48.314;11.562;2023-03-20T01:46:23;28.45;;;26.48;;
36585;SDS011;22591;48.314;11.562;2023-03-20T01:51:21;26.63;;;25.00;;
36585;SDS011;22591;48.314;11.562;2023-03-20T01:53:56;30.25;;;28.27;;
36585;SDS011;22591;48.314;11.562;2023-03-20T01:58:59;26.65;;;24.95;;
36585;SDS011;22591;48.314;11.562;2023-03-20T02:01:27;29.80;;;27.75;;
36585;SDS011;22591;48.314;11.562;2023-03-20T02:03:54;34.22;;;31.92;;
36585;SDS011;22591;48.314;11.562;2023-03-20T02:06:21;33.97;;;31.58;;
36585;SDS011;22591;48.314;11.562;2023-03-20T02:08:48;30.00;;;28.27;;
36585;SDS011;22591;48.314;11.562;2023-03-20T02:11:15;26.55;;;24.83;;
36585;SDS011;22591;48.314;11.562;2023-03-20T02:13:43;25.95;;;24.25;;
36585;SDS011;22591;48.314;11.562;2023-03-20T02:16:11;23.17;;;21.65;;
36585;SDS011;22591;48.314;11.562;2023-03-20T02:18:42;27.48;;;25.67;;
36585;SDS011;22591;48.314;11.562;2023-03-20T02:40:16;21.05;;;19.65;;
36585;SDS011;22591;48.314;11.562;2023-03-20T02:42:55;21.67;;;20.33;;
36585;SDS011;22591;48.314;11.562;2023-03-20T02:45:39;25.02;;;23.45;;
36585;SDS011;22591;48.314;11.562;2023-03-20T02:51:33;26.15;;;24.55;;
36585;SDS011;22591;48.314;11.562;2023-03-20T02:57:01;23.10;;;21.70;;
36585;SDS011;22591;48.314;11.562;2023-03-20T03:04:37;21.42;;;20.02;;
36585;SDS011;22591;48.314;11.562;2023-03-20T03:07:06;22.42;;;21.05;;
36585;SDS011;22591;48.314;11.562;2023-03-20T03:09:40;24.80;;;23.13;;
36585;SDS011;22591;48.314;11.562;2023-03-20T03:12:16;25.20;;;23.40;;
36585;SDS011;22591;48.314;11.562;2023-03-20T03:14:46;26.45;;;24.25;;
36585;SDS011;22591;48.314;11.562;2023-03-20T03:17:14;26.02;;;24.42;;
36585;SDS011;22591;48.314;11.562;2023-03-20T03:19:46;25.02;;;23.60;;
36585;SDS011;22591;48.314;11.562;2023-03-20T03:22:15;24.13;;;22.48;;
36585;SDS011;22591;48.314;11.562;2023-03-20T03:24:45;21.13;;;19.83;;
36585;SDS011;22591;48.314;11.562;2023-03-20T03:27:20;23.00;;;21.42;;
36585;SDS011;22591;48.314;11.562;2023-03-20T03:29:48;23.92;;;22.42;;
36585;SDS011;22591;48.314;11.562;2023-03-20T03:32:23;26.77;;;25.20;;
36585;SDS011;22591;48.314;11.562;2023-03-20T03:34:55;24.75;;;23.30;;
36585;SDS011;22591;48.314;11.562;2023-03-20T03:37:39;21.10;;;19.70;;
36585;SDS011;22591;48.314;11.562;2023-03-20T03:43:17;23.35;;;21.83;;
36585;SDS011;22591;48.314;11.562;2023-03-20T03:46:19;22.05;;;20.38;;
36585;SDS011;22591;48.314;11.562;2023-03-20T03:48:55;21.67;;;20.30;;
36585;SDS011;22591;48.314;11.562;2023-03-20T03:51:23;19.60;;;18.30;;
36585;SDS011;22591;48.314;11.562;2023-03-20T03:53:53;18.80;;;17.70;;
36585;SDS011;22591;48.314;11.562;2023-03-20T03:56:26;16.30;;;15.10;;
36585;SDS011;22591;48.314;11.562;2023-03-20T03:58:55;15.82;;;14.82;;
36585;SDS011;22591;48.314;11.562;2023-03-20T04:01:29;18.33;;;17.02;;
36585;SDS011;22591;48.314;11.562;2023-03-20T04:03:59;16.75;;;15.55;;
36585;SDS011;22591;48.314;11.562;2023-03-20T04:06:27;18.83;;;17.55;;
36585;SDS011;22591;48.314;11.562;2023-03-20T04:08:53;17.35;;;16.27;;
36585;SDS011;22591;48.314;11.562;2023-03-20T04:11:19;16.42;;;15.27;;
36585;SDS011;22591;48.314;11.562;2023-03-20T04:13:47;15.35;;;14.15;;
36585;SDS011;22591;48.314;11.562;2023-03-20T04:16:15;14.23;;;13.02;;
36585;SDS011;22591;48.314;11.562;2023-03-20T04:18:41;11.75;;;10.77;;
36585;SDS011;22591;48.314;11.562;2023-03-20T04:21:08;9.90;;;9.07;;
36585;SDS011;22591;48.314;11.562;2023-03-20T04:23:34;6.90;;;6.40;;
36585;SDS011;22591;48.314;11.562;2023-03-20T04:25:59;6.65;;;6.15;;
36585;SDS011;22591;48.314;11.562;2023-03-20T04:28:25;6.10;;;5.63;;
36585;SDS011;22591;48.314;11.562;2023-03-20T04:30:52;5.95;;;5.45;;
36585;SDS011;22591;48.314;11.562;2023-03-20T04:33:22;6.45;;;5.40;;
36585;SDS011;22591;48.314;11.562;2023-03-20T04:35:49;7.03;;;6.43;;
36585;SDS011;22591;48.314;11.562;2023-03-20T04:38:15;7.22;;;5.75;;
36585;SDS011;22591;48.314;11.562;2023-03-20T04:40:41;6.60;;;6.00;;
36585;SDS011;22591;48.314;11.562;2023-03-20T04:43:08;6.05;;;5.38;;
36585;SDS011;22591;48.314;11.562;2023-03-20T04:45:33;6.25;;;5.65;;
36585;SDS011;22591;48.314;11.562;2023-03-20T04:47:59;6.47;;;5.88;;
36585;SDS011;22591;48.314;11.562;2023-03-20T04:50:24;6.60;;;5.88;;
36585;SDS011;22591;48.314;11.562;2023-03-20T04:52:50;5.97;;;5.50;;
36585;SDS011;22591;48.314;11.562;2023-03-20T04:55:16;6.63;;;5.93;;
36585;SDS011;22591;48.314;11.562;2023-03-20T04:57:41;7.53;;;5.97;;
36585;SDS011;22591;48.314;11.562;2023-03-20T05:00:07;5.53;;;5.03;;
36585;SDS011;22591;48.314;11.562;2023-03-20T05:02:33;4.70;;;4.40;;
36585;SDS011;22591;48.314;11.562;2023-03-20T05:04:59;5.53;;;5.13;;
36585;SDS011;22591;48.314;11.562;2023-03-20T05:07:25;5.22;;;4.82;;
36585;SDS011;22591;48.314;11.562;2023-03-20T05:09:50;5.53;;;5.13;;
36585;SDS011;22591;48.314;11.562;2023-03-20T05:12:16;5.25;;;4.93;;
36585;SDS011;22591;48.314;11.562;2023-03-20T05:14:41;5.53;;;5.03;;
36585;SDS011;22591;48.314;11.562;2023-03-20T05:17:07;6.95;;;5.40;;
36585;SDS011;22591;48.314;11.562;2023-03-20T05:19:33;6.60;;;6.10;;
36585;SDS011;22591;48.314;11.562;2023-03-20T05:21:58;5.53;;;5.18;;
36585;SDS011;22591;48.314;11.562;2023-03-20T05:24:25;6.28;;;5.80;;
36585;SDS011;22591;48.314;11.562;2023-03-20T05:26:52;5.85;;;5.45;;
36585;SDS011;22591;48.314;11.562;2023-03-20T05:29:18;5.95;;;5.53;;
36585;SDS011;22591;48.314;11.562;2023-03-20T05:31:44;6.53;;;6.03;;
36585;SDS011;22591;48.314;11.562;2023-03-20T05:34:10;6.95;;;6.35;;
36585;SDS011;22591;48.314;11.562;2023-03-20T05:36:35;6.13;;;5.72;;
36585;SDS011;22591;48.314;11.562;2023-03-20T05:39:01;6.70;;;6.20;;
36585;SDS011;22591;48.314;11.562;2023-03-20T05:41:27;7.00;;;6.32;;
36585;SDS011;22591;48.314;11.562;2023-03-20T05:43:52;6.60;;;6.00;;
36585;SDS011;22591;48.314;11.562;2023-03-20T05:46:18;6.72;;;6.15;;
36585;SDS011;22591;48.314;11.562;2023-03-20T05:48:43;6.68;;;6.18;;
36585;SDS011;22591;48.314;11.562;2023-03-20T05:51:09;6.85;;;6.32;;
36585;SDS011;22591;48.314;11.562;2023-03-20T05:53:34;6.63;;;6.13;;
36585;SDS011;22591;48.314;11.562;2023-03-20T05:56:00;6.75;;;6.00;;
36585;SDS011;22591;48.314;11.562;2023-03-20T05:58:25;6.75;;;6.10;;
36585;SDS011;22591;48.314;11.562;2023-03-20T06:00:51;6.90;;;6.40;;
36585;SDS011;22591;48.314;11.562;2023-03-20T06:03:16;8.00;;;7.25;;
36585;SDS011;22591;48.314;11.562;2023-03-20T06:05:43;7.43;;;6.82;;
36585;SDS011;22591;48.314;11.562;2023-03-20T06:08:08;7.30;;;6.55;;
36585;SDS011;22591;48.314;11.562;2023-03-20T06:10:34;7.32;;;6.65;;
36585;SDS011;22591;48.314;11.562;2023-03-20T06:13:00;6.55;;;5.95;;
36585;SDS011;22591;48.314;11.562;2023-03-20T06:15:28;7.20;;;6.60;;
36585;SDS011;22591;48.314;11.562;2023-03-20T06:17:54;6.65;;;6.18;;
36585;SDS011;22591;48.314;11.562;2023-03-20T06:20:20;8.40;;;7.60;;
36585;SDS011;22591;48.314;11.562;2023-03-20T06:22:46;7.05;;;6.55;;
36585;SDS011;22591;48.314;11.562;2023-03-20T06:25:12;8.18;;;7.38;;
36585;SDS011;22591;48.314;11.562;2023-03-20T06:27:38;10.02;;;8.85;;
36585;SDS011;22591;48.314;11.562;2023-03-20T06:30:04;9.32;;;8.43;;
36585;SDS011;22591;48.314;11.562;2023-03-20T06:32:30;9.05;;;8.30;;
36585;SDS011;22591;48.314;11.562;2023-03-20T06:34:56;9.90;;;8.93;;
36585;SDS011;22591;48.314;11.562;2023-03-20T06:37:22;9.95;;;8.93;;
36585;SDS011;22591;48.314;11.562;2023-03-20T06:39:47;9.85;;;8.57;;
36585;SDS011;22591;48.314;11.562;2023-03-20T06:42:13;11.52;;;7.93;;
36585;SDS011;22591;48.314;11.562;2023-03-20T06:44:39;7.70;;;6.65;;
36585;SDS011;22591;48.314;11.562;2023-03-20T06:47:05;9.27;;;8.38;;
36585;SDS011;22591;48.314;11.562;2023-03-20T06:49:30;8.90;;;7.32;;
36585;SDS011;22591;48.314;11.562;2023-03-20T06:51:56;9.00;;;7.35;;
36585;SDS011;22591;48.314;11.562;2023-03-20T06:54:23;7.95;;;7.35;;
36585;SDS011;22591;48.314;11.562;2023-03-20T06:56:49;8.27;;;7.68;;
36585;SDS011;22591;48.314;11.562;2023-03-20T06:59:15;10.45;;;9.55;;
36585;SDS011;22591;48.314;11.562;2023-03-20T07:01:41;9.38;;;8.35;;
36585;SDS011;22591;48.314;11.562;2023-03-20T07:04:07;11.80;;;10.57;;
36585;SDS011;22591;48.314;11.562;2023-03-20T07:06:32;9.60;;;8.70;;
36585;SDS011;22591;48.314;11.562;2023-03-20T07:08:58;9.68;;;8.80;;
36585;SDS011;22591;48.314;11.562;2023-03-20T07:11:25;9.48;;;8.68;;
36585;SDS011;22591;48.314;11.562;2023-03-20T07:13:51;9.57;;;8.57;;
36585;SDS011;22591;48.314;11.562;2023-03-20T07:16:17;9.43;;;8.63;;
36585;SDS011;22591;48.314;11.562;2023-03-20T07:18:42;9.52;;;8.60;;
36585;SDS011;22591;48.314;11.562;2023-03-20T07:21:09;8.73;;;7.75;;
36585;SDS011;22591;48.314;11.562;2023-03-20T07:23:42;9.30;;;8.40;;
36585;SDS011;22591;48.314;11.562;2023-03-20T07:26:08;9.82;;;8.98;;
36585;SDS011;22591;48.314;11.562;2023-03-20T07:28:33;9.45;;;8.55;;
36585;SDS011;22591;48.314;11.562;2023-03-20T07:30:59;9.73;;;8.88;;
36585;SDS011;22591;48.314;11.562;2023-03-20T07:33:25;8.32;;;7.72;;
36585;SDS011;22591;48.314;11.562;2023-03-20T07:35:51;10.00;;;9.20;;
36585;SDS011;22591;48.314;11.562;2023-03-20T07:38:17;10.15;;;9.25;;
36585;SDS011;22591;48.314;11.562;2023-03-20T07:40:43;10.18;;;9.38;;
36585;SDS011;22591;48.314;11.562;2023-03-20T07:43:09;10.00;;;8.82;;
36585;SDS011;22591;48.314;11.562;2023-03-20T07:45:34;9.05;;;8.30;;
36585;SDS011;22591;48.314;11.562;2023-03-20T07:48:00;8.98;;;8.20;;
36585;SDS011;22591;48.314;11.562;2023-03-20T07:50:25;9.70;;;9.00;;
36585;SDS011;22591;48.314;11.562;2023-03-20T07:52:51;9.07;;;8.30;;
36585;SDS011;22591;48.314;11.562;2023-03-20T07:55:16;9.57;;;8.68;;
36585;SDS011;22591;48.314;11.562;2023-03-20T07:57:42;10.10;;;9.30;;
36585;SDS011;22591;48.314;11.562;2023-03-20T08:00:08;8.70;;;8.02;;
36585;SDS011;22591;48.314;11.562;2023-03-20T08:02:34;7.95;;;7.25;;
36585;SDS011;22591;48.314;11.562;2023-03-20T08:05:00;6.85;;;6.28;;
36585;SDS011;22591;48.314;11.562;2023-03-20T08:07:25;7.05;;;6.55;;
36585;SDS011;22591;48.314;11.562;2023-03-20T08:09:53;7.32;;;6.88;;
36585;SDS011;22591;48.314;11.562;2023-03-20T08:12:19;6.93;;;6.43;;
36585;SDS011;22591;48.314;11.562;2023-03-20T08:14:45;7.72;;;6.82;;
36585;SDS011;22591;48.314;11.562;2023-03-20T08:17:11;7.70;;;7.00;;
36585;SDS011;22591;48.314;11.562;2023-03-20T08:19:36;6.75;;;6.25;;
36585;SDS011;22591;48.314;11.562;2023-03-20T08:22:02;6.90;;;6.40;;
36585;SDS011;22591;48.314;11.562;2023-03-20T08:24:28;6.38;;;5.97;;
36585;SDS011;22591;48.314;11.562;2023-03-20T08:26:54;6.22;;;5.40;;
36585;SDS011;22591;48.314;11.562;2023-03-20T08:29:20;6.47;;;5.95;;
36585;SDS011;22591;48.314;11.562;2023-03-20T08:31:45;6.38;;;6.00;;
36585;SDS011;22591;48.314;11.562;2023-03-20T08:34:11;5.97;;;5.68;;
36585;SDS011;22591;48.314;11.562;2023-03-20T08:36:36;5.93;;;5.53;;
36585;SDS011;22591;48.314;11.562;2023-03-20T08:39:03;6.45;;;6.05;;
36585;SDS011;22591;48.314;11.562;2023-03-20T08:41:30;6.57;;;6.18;;
36585;SDS011;22591;48.314;11.562;2023-03-20T08:43:57;6.18;;;5.78;;
36585;SDS011;22591;48.314;11.562;2023-03-20T08:46:22;7.82;;;5.22;;
36585;SDS011;22591;48.314;11.562;2023-03-20T08:48:48;5.78;;;5.45;;
36585;SDS011;22591;48.314;11.562;2023-03-20T08:51:13;7.03;;;6.53;;
36585;SDS011;22591;48.314;11.562;2023-03-20T08:53:40;6.13;;;5.65;;
36585;SDS011;22591;48.314;11.562;2023-03-20T08:56:05;5.88;;;5.47;;
36585;SDS011;22591;48.314;11.562;2023-03-20T08:58:31;6.07;;;5.68;;
36585;SDS011;22591;48.314;11.562;2023-03-20T09:01:01;5.75;;;5.35;;
36585;SDS011;22591;48.314;11.562;2023-03-20T09:03:28;5.35;;;4.95;;
36585;SDS011;22591;48.314;11.562;2023-03-20T09:05:54;5.40;;;5.00;;
36585;SDS011;22591;48.314;11.562;2023-03-20T09:08:20;6.47;;;6.03;;
36585;SDS011;22591;48.314;11.562;2023-03-20T09:10:46;6.40;;;5.85;;
36585;SDS011;22591;48.314;11.562;2023-03-20T09:13:13;6.90;;;6.30;;
36585;SDS011;22591;48.314;11.562;2023-03-20T09:15:39;6.00;;;5.60;;
36585;SDS011;22591;48.314;11.562;2023-03-20T09:18:04;6.13;;;5.78;;
36585;SDS011;22591;48.314;11.562;2023-03-20T09:20:30;6.07;;;5.75;;
36585;SDS011;22591;48.314;11.562;2023-03-20T09:22:55;5.90;;;5.40;;
36585;SDS011;22591;48.314;11.562;2023-03-20T09:25:21;5.88;;;5.47;;
36585;SDS011;22591;48.314;11.562;2023-03-20T09:27:50;6.03;;;5.63;;
36585;SDS011;22591;48.314;11.562;2023-03-20T09:30:19;5.88;;;5.47;;
36585;SDS011;22591;48.314;11.562;2023-03-20T09:32:45;6.22;;;5.72;;
36585;SDS011;22591;48.314;11.562;2023-03-20T09:35:11;5.50;;;5.10;;
36585;SDS011;22591;48.314;11.562;2023-03-20T09:37:36;5.90;;;5.57;;
36585;SDS011;22591;48.314;11.562;2023-03-20T09:40:02;5.63;;;5.30;;
36585;SDS011;22591;48.314;11.562;2023-03-20T09:42:45;5.53;;;5.03;;
36585;SDS011;22591;48.314;11.562;2023-03-20T09:48:02;4.85;;;4.55;;
36585;SDS011;22591;48.314;11.562;2023-03-20T09:51:06;6.50;;;5.90;;
36585;SDS011;22591;48.314;11.562;2023-03-20T09:53:46;5.65;;;4.18;;
36585;SDS011;22591;48.314;11.562;2023-03-20T09:56:22;4.72;;;4.43;;
36585;SDS011;22591;48.314;11.562;2023-03-20T09:59:00;4.78;;;4.57;;
36585;SDS011;22591;48.314;11.562;2023-03-20T10:01:41;6.03;;;4.68;;
36585;SDS011;22591;48.314;11.562;2023-03-20T10:04:11;4.95;;;4.65;;
36585;SDS011;22591;48.314;11.562;2023-03-20T10:06:36;4.43;;;4.13;;
36585;SDS011;22591;48.314;11.562;2023-03-20T10:09:09;4.72;;;4.30;;
36585;SDS011;22591;48.314;11.562;2023-03-20T10:17:03;3.05;;;2.85;;
36585;SDS011;22591;48.314;11.562;2023-03-20T10:22:24;3.22;;;3.03;;
36585;SDS011;22591;48.314;11.562;2023-03-20T10:28:05;3.88;;;3.58;;
36585;SDS011;22591;48.314;11.562;2023-03-20T10:30:48;2.67;;;2.58;;
36585;SDS011;22591;48.314;11.562;2023-03-20T10:39:36;3.67;;;3.45;;
36585;SDS011;22591;48.314;11.562;2023-03-20T10:42:16;2.80;;;2.60;;
36585;SDS011;22591;48.314;11.562;2023-03-20T10:44:58;2.65;;;2.55;;
36585;SDS011;22591;48.314;11.562;2023-03-20T10:47:31;3.90;;;2.70;;
36585;SDS011;22591;48.314;11.562;2023-03-20T10:50:02;2.83;;;2.70;;
36585;SDS011;22591;48.314;11.562;2023-03-20T10:52:34;2.25;;;2.15;;
36585;SDS011;22591;48.314;11.562;2023-03-20T10:55:04;2.42;;;2.33;;
36585;SDS011;22591;48.314;11.562;2023-03-20T10:57:39;2.90;;;2.70;;
36585;SDS011;22591;48.314;11.562;2023-03-20T11:00:15;2.45;;;2.35;;
36585;SDS011;22591;48.314;11.562;2023-03-20T11:02:45;3.13;;;2.28;;
36585;SDS011;22591;48.314;11.562;2023-03-20T11:05:29;2.28;;;2.10;;
36585;SDS011;22591;48.314;11.562;2023-03-20T11:08:04;2.42;;;2.30;;
36585;SDS011;22591;48.314;11.562;2023-03-20T11:10:32;3.00;;;2.78;;
36585;SDS011;22591;48.314;11.562;2023-03-20T11:13:03;2.10;;;1.95;;
36585;SDS011;22591;48.314;11.562;2023-03-20T11:15:54;1.98;;;1.80;;
36585;SDS011;22591;48.314;11.562;2023-03-20T11:18:23;1.90;;;1.80;;
36585;SDS011;22591;48.314;11.562;2023-03-20T11:20:50;1.42;;;1.40;;
36585;SDS011;22591;48.314;11.562;2023-03-20T11:23:25;1.40;;;1.40;;
36585;SDS011;22591;48.314;11.562;2023-03-20T11:25:56;1.55;;;1.48;;
36585;SDS011;22591;48.314;11.562;2023-03-20T11:28:37;1.75;;;1.30;;
36585;SDS011;22591;48.314;11.562;2023-03-20T11:33:43;1.23;;;1.23;;
36585;SDS011;22591;48.314;11.562;2023-03-20T11:38:48;0.80;;;0.80;;
36585;SDS011;22591;48.314;11.562;2023-03-20T11:41:25;1.30;;;1.20;;
36585;SDS011;22591;48.314;11.562;2023-03-20T11:43:52;1.00;;;1.00;;
36585;SDS011;22591;48.314;11.562;2023-03-20T11:46:18;2.83;;;1.33;;
36585;SDS011;22591;48.314;11.562;2023-03-20T11:48:47;0.80;;;0.80;;
36585;SDS011;22591;48.314;11.562;2023-03-20T11:51:26;1.60;;;1.38;;
36585;SDS011;22591;48.314;11.562;2023-03-20T11:56:23;0.70;;;0.70;;
36585;SDS011;22591;48.314;11.562;2023-03-20T12:01:20;1.58;;;0.90;;
36585;SDS011;22591;48.314;11.562;2023-03-20T12:03:50;1.55;;;1.45;;
36585;SDS011;22591;48.314;11.562;2023-03-20T12:06:21;0.90;;;0.90;;
36585;SDS011;22591;48.314;11.562;2023-03-20T12:08:51;1.10;;;1.10;;
36585;SDS011;22591;48.314;11.562;2023-03-20T12:11:33;1.00;;;1.00;;
36585;SDS011;22591;48.314;11.562;2023-03-20T12:14:15;2.35;;;1.33;;
36585;SDS011;22591;48.314;11.562;2023-03-20T12:16:52;1.50;;;1.40;;
36585;SDS011;22591;48.314;11.562;2023-03-20T12:19:28;1.65;;;1.55;;
36585;SDS011;22591;48.314;11.562;2023-03-20T12:22:00;1.60;;;1.50;;
36585;SDS011;22591;48.314;11.562;2023-03-20T12:24:42;1.40;;;1.30;;
36585;SDS011;22591;48.314;11.562;2023-03-20T12:27:19;1.00;;;1.00;;
36585;SDS011;22591;48.314;11.562;2023-03-20T12:33:03;1.52;;;1.40;;
36585;SDS011;22591;48.314;11.562;2023-03-20T12:35:36;1.65;;;1.55;;
36585;SDS011;22591;48.314;11.562;2023-03-20T12:38:42;1.92;;;1.83;;
36585;SDS011;22591;48.314;11.562;2023-03-20T12:43:44;2.20;;;1.65;;
36585;SDS011;22591;48.314;11.562;2023-03-20T12:46:50;1.35;;;1.35;;
36585;SDS011;22591;48.314;11.562;2023-03-20T12:52:14;1.17;;;1.08;;
36585;SDS011;22591;48.314;11.562;2023-03-20T13:00:19;1.83;;;1.70;;
36585;SDS011;22591;48.314;11.562;2023-03-20T13:05:40;2.40;;;1.42;;
36585;SDS011;22591;48.314;11.562;2023-03-20T13:13:54;1.75;;;1.65;;
36585;SDS011;22591;48.314;11.562;2023-03-20T13:19:06;1.20;;;1.10;;
36585;SDS011;22591;48.314;11.562;2023-03-20T13:36:55;1.60;;;1.50;;
36585;SDS011;22591;48.314;11.562;2023-03-20T13:39:45;3.70;;;2.00;;
36585;SDS011;22591;48.314;11.562;2023-03-20T13:42:16;1.23;;;1.23;;
36585;SDS011;22591;48.314;11.562;2023-03-20T13:44:45;0.85;;;0.85;;
36585;SDS011;22591;48.314;11.562;2023-03-20T13:47:21;1.08;;;1.08;;
36585;SDS011;22591;48.314;11.562;2023-03-20T13:49:52;0.90;;;0.90;;
36585;SDS011;22591;48.314;11.562;2023-03-20T13:52:24;1.98;;;1.52;;
36585;SDS011;22591;48.314;11.562;2023-03-20T14:03:26;1.33;;;1.27;;
36585;SDS011;22591;48.314;11.562;2023-03-20T14:06:25;1.85;;;1.50;;
36585;SDS011;22591;48.314;11.562;2023-03-20T14:09:35;4.35;;;1.65;;
36585;SDS011;22591;48.314;11.562;2023-03-20T14:12:11;1.35;;;1.35;;
36585;SDS011;22591;48.314;11.562;2023-03-20T14:14:48;1.45;;;1.35;;
36585;SDS011;22591;48.314;11.562;2023-03-20T14:17:20;1.58;;;1.38;;
36585;SDS011;22591;48.314;11.562;2023-03-20T14:19:51;1.45;;;1.20;;
36585;SDS011;22591;48.314;11.562;2023-03-20T14:22:28;1.50;;;1.40;;
36585;SDS011;22591;48.314;11.562;2023-03-20T14:24:59;1.00;;;1.00;;
36585;SDS011;22591;48.314;11.562;2023-03-20T14:27:33;1.20;;;1.20;;
36585;SDS011;22591;48.314;11.562;2023-03-20T14:35:51;1.50;;;1.33;;
36585;SDS011;22591;48.314;11.562;2023-03-20T14:38:57;1.65;;;1.10;;
36585;SDS011;22591;48.314;11.562;2023-03-20T14:41:36;1.65;;;1.10;;
36585;SDS011;22591;48.314;11.562;2023-03-20T14:44:21;1.17;;;1.17;;
36585;SDS011;22591;48.314;11.562;2023-03-20T14:46:56;1.07;;;1.07;;
36585;SDS011;22591;48.314;11.562;2023-03-20T14:52:30;1.65;;;1.15;;
36585;SDS011;22591;48.314;11.562;2023-03-20T14:57:45;1.02;;;1.02;;
36585;SDS011;22591;48.314;11.562;2023-03-20T15:00:32;1.20;;;1.10;;
36585;SDS011;22591;48.314;11.562;2023-03-20T15:03:07;1.25;;;1.15;;
36585;SDS011;22591;48.314;11.562;2023-03-20T15:05:39;1.23;;;1.13;;
36585;SDS011;22591;48.314;11.562;2023-03-20T15:08:07;1.10;;;1.10;;
36585;SDS011;22591;48.314;11.562;2023-03-20T15:10:43;0.75;;;0.75;;
36585;SDS011;22591;48.314;11.562;2023-03-20T15:13:13;1.42;;;0.80;;
36585;SDS011;22591;48.314;11.562;2023-03-20T15:15:50;1.67;;;0.80;;
36585;SDS011;22591;48.314;11.562;2023-03-20T15:18:21;0.77;;;0.77;;
36585;SDS011;22591;48.314;11.562;2023-03-20T15:20:49;2.08;;;0.95;;
36585;SDS011;22591;48.314;11.562;2023-03-20T15:23:15;0.73;;;0.73;;
36585;SDS011;22591;48.314;11.562;2023-03-20T15:25:43;2.10;;;0.70;;
36585;SDS011;22591;48.314;11.562;2023-03-20T15:28:12;0.60;;;0.60;;
36585;SDS011;22591;48.314;11.562;2023-03-20T15:30:40;0.70;;;0.70;;
36585;SDS011;22591;48.314;11.562;2023-03-20T15:33:09;0.55;;;0.55;;
36585;SDS011;22591;48.314;11.562;2023-03-20T15:35:46;0.77;;;0.73;;
36585;SDS011;22591;48.314;11.562;2023-03-20T15:38:12;0.80;;;0.80;;
36585;SDS011;22591;48.314;11.562;2023-03-20T15:40:40;0.77;;;0.77;;
36585;SDS011;22591;48.314;11.562;2023-03-20T15:43:11;1.17;;;0.80;;
36585;SDS011;22591;48.314;11.562;2023-03-20T15:45:44;1.00;;;1.00;;
36585;SDS011;22591;48.314;11.562;2023-03-20T15:48:14;1.88;;;0.60;;
36585;SDS011;22591;48.314;11.562;2023-03-20T15:50:42;0.63;;;0.63;;
36585;SDS011;22591;48.314;11.562;2023-03-20T15:53:13;1.13;;;1.13;;
36585;SDS011;22591;48.314;11.562;2023-03-20T15:55:46;1.17;;;1.00;;
36585;SDS011;22591;48.314;11.562;2023-03-20T15:58:16;1.75;;;1.65;;
36585;SDS011;22591;48.314;11.562;2023-03-20T16:00:44;1.23;;;1.10;;
36585;SDS011;22591;48.314;11.562;2023-03-20T16:03:15;1.30;;;1.30;;
36585;SDS011;22591;48.314;11.562;2023-03-20T16:05:44;2.22;;;1.27;;
36585;SDS011;22591;48.314;11.562;2023-03-20T16:08:26;1.90;;;1.10;;
36585;SDS011;22591;48.314;11.562;2023-03-20T16:10:57;1.00;;;1.00;;
36585;SDS011;22591;48.314;11.562;2023-03-20T16:13:25;2.45;;;1.20;;
36585;SDS011;22591;48.314;11.562;2023-03-20T16:15:55;1.55;;;1.45;;
36585;SDS011;22591;48.314;11.562;2023-03-20T16:18:21;1.00;;;1.00;;
36585;SDS011;22591;48.314;11.562;2023-03-20T16:20:52;1.15;;;1.15;;
36585;SDS011;22591;48.314;11.562;2023-03-20T16:23:30;2.90;;;1.27;;
36585;SDS011;22591;48.314;11.562;2023-03-20T16:25:59;2.13;;;1.02;;
36585;SDS011;22591;48.314;11.562;2023-03-20T16:28:28;1.00;;;1.00;;
36585;SDS011;22591;48.314;11.562;2023-03-20T16:30:55;1.20;;;1.20;;
36585;SDS011;22591;48.314;11.562;2023-03-20T16:33:34;2.13;;;1.20;;
36585;SDS011;22591;48.314;11.562;2023-03-20T16:36:01;1.10;;;1.10;;
36585;SDS011;22591;48.314;11.562;2023-03-20T16:38:30;1.23;;;1.23;;
36585;SDS011;22591;48.314;11.562;2023-03-20T16:41:21;1.85;;;1.40;;
36585;SDS011;22591;48.314;11.562;2023-03-20T16:43:51;1.30;;;1.20;;
36585;SDS011;22591;48.314;11.562;2023-03-20T16:46:20;1.25;;;1.25;;
36585;SDS011;22591;48.314;11.562;2023-03-20T16:48:47;1.00;;;1.00;;
36585;SDS011;22591;48.314;11.562;2023-03-20T16:51:16;1.70;;;1.00;;
36585;SDS011;22591;48.314;11.562;2023-03-20T16:53:50;1.80;;;0.93;;
36585;SDS011;22591;48.314;11.562;2023-03-20T16:56:32;1.13;;;1.02;;
36585;SDS011;22591;48.314;11.562;2023-03-20T16:59:07;1.20;;;1.20;;
36585;SDS011;22591;48.314;11.562;2023-03-20T17:01:34;1.40;;;1.40;;
36585;SDS011;22591;48.314;11.562;2023-03-20T17:04:18;1.10;;;1.10;;